sensor_id;sensor_type;location;lat;lon;timestamp;pressure;altitude;pressure_sealevel;temperature;humidity
62055;BME280;48653;51.742;-1.256;2023-09-08T00:01:53;100956.19;;;23.06;45.73
62055;BME280;48653;51.742;-1.256;2023-09-08T00:04:18;100956.88;;;22.87;46.74
62055;BME280;48653;51.742;-1.256;2023-09-08T00:06:44;100955.68;;;22.83;47.15
62055;BME280;48653;51.742;-1.256;2023-09-08T00:09:10;100950.80;;;22.88;46.37
62055;BME280;48653;51.742;-1.256;2023-09-08T00:11:35;100949.35;;;22.58;46.54
62055;BME280;48653;51.742;-1.256;2023-09-08T00:14:00;100953.54;;;22.68;47.28
62055;BME280;48653;51.742;-1.256;2023-09-08T00:16:25;100956.88;;;22.33;46.44
62055;BME280;48653;51.742;-1.256;2023-09-08T00:18:51;100952.92;;;22.31;47.22
62055;BME280;48653;51.742;-1.256;2023-09-08T00:21:16;100948.98;;;22.53;46.58
62055;BME280;48653;51.742;-1.256;2023-09-08T00:23:41;100943.90;;;22.46;46.78
62055;BME280;48653;51.742;-1.256;2023-09-08T00:26:06;100945.05;;;22.39;47.46
62055;BME280;48653;51.742;-1.256;2023-09-08T00:28:32;100948.08;;;22.56;47.36
62055;BME280;48653;51.742;-1.256;2023-09-08T00:30:57;100949.76;;;22.33;47.41
62055;BME280;48653;51.742;-1.256;2023-09-08T00:33:22;100945.10;;;22.25;46.40
62055;BME280;48653;51.742;-1.256;2023-09-08T00:35:49;100940.51;;;22.02;47.11
62055;BME280;48653;51.742;-1.256;2023-09-08T00:38:13;100939.16;;;22.31;47.47
62055;BME280;48653;51.742;-1.256;2023-09-08T00:40:38;100942.02;;;22.35;47.59
62055;BME280;48653;51.742;-1.256;2023-09-08T00:43:04;100941.50;;;21.97;46.67
62055;BME280;48653;51.742;-1.256;2023-09-08T00:45:30;100940.44;;;21.85;47.23
62055;BME280;48653;51.742;-1.256;2023-09-08T00:47:55;100938.19;;;22.33;47.55
62055;BME280;48653;51.742;-1.256;2023-09-08T00:50:20;100940.27;;;22.23;47.55
62055;BME280;48653;51.742;-1.256;2023-09-08T00:52:45;100946.77;;;22.16;46.21
62055;BME280;48653;51.742;-1.256;2023-09-08T00:55:11;100950.38;;;22.23;46.63
62055;BME280;48653;51.742;-1.256;2023-09-08T00:57:36;100949.34;;;22.36;46.21
62055;BME280;48653;51.742;-1.256;2023-09-08T01:00:02;100948.47;;;22.03;46.37
62055;BME280;48653;51.742;-1.256;2023-09-08T01:02:27;100945.34;;;22.02;47.32
62055;BME280;48653;51.742;-1.256;2023-09-08T01:04:53;100942.64;;;21.80;48.60
62055;BME280;48653;51.742;-1.256;2023-09-08T01:07:19;100938.45;;;22.01;48.16
62055;BME280;48653;51.742;-1.256;2023-09-08T01:09:45;100940.34;;;21.90;47.76
62055;BME280;48653;51.742;-1.256;2023-09-08T01:14:34;100939.38;;;21.91;49.12
62055;BME280;48653;51.742;-1.256;2023-09-08T01:17:00;100937.62;;;21.68;48.75
62055;BME280;48653;51.742;-1.256;2023-09-08T01:19:25;100940.09;;;22.06;47.95
62055;BME280;48653;51.742;-1.256;2023-09-08T01:22:02;100934.08;;;21.91;47.66
62055;BME280;48653;51.742;-1.256;2023-09-08T01:24:27;100934.41;;;21.84;46.59
62055;BME280;48653;51.742;-1.256;2023-09-08T01:26:41;100930.66;;;21.96;46.27
62055;BME280;48653;51.742;-1.256;2023-09-08T01:29:07;100931.09;;;21.88;45.68
62055;BME280;48653;51.742;-1.256;2023-09-08T01:31:32;100932.37;;;21.96;47.67
62055;BME280;48653;51.742;-1.256;2023-09-08T01:33:58;100932.56;;;21.81;46.06
62055;BME280;48653;51.742;-1.256;2023-09-08T01:36:23;100932.00;;;21.93;47.66
62055;BME280;48653;51.742;-1.256;2023-09-08T01:38:48;100933.89;;;21.80;45.63
62055;BME280;48653;51.742;-1.256;2023-09-08T01:41:14;100935.84;;;22.16;47.59
62055;BME280;48653;51.742;-1.256;2023-09-08T01:43:39;100931.35;;;21.90;47.27
62055;BME280;48653;51.742;-1.256;2023-09-08T01:46:05;100931.95;;;21.71;46.52
62055;BME280;48653;51.742;-1.256;2023-09-08T01:48:31;100930.76;;;21.82;47.13
62055;BME280;48653;51.742;-1.256;2023-09-08T01:50:57;100930.66;;;21.73;47.02
62055;BME280;48653;51.742;-1.256;2023-09-08T01:53:22;100928.84;;;22.01;46.98
62055;BME280;48653;51.742;-1.256;2023-09-08T01:55:46;100927.61;;;21.75;46.97
62055;BME280;48653;51.742;-1.256;2023-09-08T01:58:12;100926.90;;;21.96;46.97
62055;BME280;48653;51.742;-1.256;2023-09-08T02:00:37;100923.54;;;21.84;47.69
62055;BME280;48653;51.742;-1.256;2023-09-08T02:03:04;100920.58;;;21.66;46.84
62055;BME280;48653;51.742;-1.256;2023-09-08T02:05:29;100919.04;;;21.69;48.50
62055;BME280;48653;51.742;-1.256;2023-09-08T02:07:54;100924.14;;;21.38;48.17
62055;BME280;48653;51.742;-1.256;2023-09-08T02:10:19;100925.24;;;21.28;48.18
62055;BME280;48653;51.742;-1.256;2023-09-08T02:12:45;100930.12;;;21.41;47.51
62055;BME280;48653;51.742;-1.256;2023-09-08T02:15:10;100933.07;;;21.23;47.74
62055;BME280;48653;51.742;-1.256;2023-09-08T02:17:35;100936.16;;;21.33;48.70
62055;BME280;48653;51.742;-1.256;2023-09-08T02:20:01;100933.16;;;21.21;48.88
62055;BME280;48653;51.742;-1.256;2023-09-08T02:22:27;100936.68;;;21.35;47.87
62055;BME280;48653;51.742;-1.256;2023-09-08T02:24:52;100935.41;;;21.52;47.92
62055;BME280;48653;51.742;-1.256;2023-09-08T02:27:19;100939.12;;;20.98;48.71
62055;BME280;48653;51.742;-1.256;2023-09-08T02:29:43;100939.24;;;21.27;49.72
62055;BME280;48653;51.742;-1.256;2023-09-08T02:32:09;100938.54;;;21.19;49.14
62055;BME280;48653;51.742;-1.256;2023-09-08T02:34:34;100937.81;;;20.87;49.48
62055;BME280;48653;51.742;-1.256;2023-09-08T02:37:00;100931.04;;;21.27;48.20
62055;BME280;48653;51.742;-1.256;2023-09-08T02:39:25;100926.90;;;21.31;48.89
62055;BME280;48653;51.742;-1.256;2023-09-08T02:41:51;100928.66;;;21.38;49.63
62055;BME280;48653;51.742;-1.256;2023-09-08T02:44:16;100928.12;;;21.04;48.91
62055;BME280;48653;51.742;-1.256;2023-09-08T02:46:42;100928.84;;;21.26;49.45
62055;BME280;48653;51.742;-1.256;2023-09-08T02:49:07;100925.88;;;20.95;48.59
62055;BME280;48653;51.742;-1.256;2023-09-08T02:51:32;100927.65;;;21.41;49.54
62055;BME280;48653;51.742;-1.256;2023-09-08T02:53:57;100928.10;;;21.16;49.64
62055;BME280;48653;51.742;-1.256;2023-09-08T02:56:22;100926.91;;;20.83;49.69
62055;BME280;48653;51.742;-1.256;2023-09-08T02:58:48;100929.92;;;20.92;49.74
62055;BME280;48653;51.742;-1.256;2023-09-08T03:01:15;100931.41;;;21.01;49.17
62055;BME280;48653;51.742;-1.256;2023-09-08T03:03:39;100935.66;;;21.27;49.33
62055;BME280;48653;51.742;-1.256;2023-09-08T03:06:04;100931.04;;;21.14;48.64
62055;BME280;48653;51.742;-1.256;2023-09-08T03:08:29;100922.37;;;20.95;49.89
62055;BME280;48653;51.742;-1.256;2023-09-08T03:10:55;100915.67;;;20.69;50.16
62055;BME280;48653;51.742;-1.256;2023-09-08T03:13:19;100916.03;;;20.81;49.81
62055;BME280;48653;51.742;-1.256;2023-09-08T03:15:45;100918.85;;;21.46;49.37
62055;BME280;48653;51.742;-1.256;2023-09-08T03:18:10;100920.14;;;21.33;49.04
62055;BME280;48653;51.742;-1.256;2023-09-08T03:20:35;100917.81;;;21.28;48.25
62055;BME280;48653;51.742;-1.256;2023-09-08T03:23:01;100919.96;;;20.75;48.08
62055;BME280;48653;51.742;-1.256;2023-09-08T03:25:26;100919.60;;;21.09;48.53
62055;BME280;48653;51.742;-1.256;2023-09-08T03:27:51;100921.07;;;21.42;47.77
62055;BME280;48653;51.742;-1.256;2023-09-08T03:30:17;100927.75;;;21.39;48.29
62055;BME280;48653;51.742;-1.256;2023-09-08T03:32:42;100925.92;;;21.09;47.91
62055;BME280;48653;51.742;-1.256;2023-09-08T03:35:08;100917.32;;;21.17;49.18
62055;BME280;48653;51.742;-1.256;2023-09-08T03:37:35;100914.20;;;21.19;48.39
62055;BME280;48653;51.742;-1.256;2023-09-08T03:39:59;100912.58;;;21.20;48.46
62055;BME280;48653;51.742;-1.256;2023-09-08T03:42:25;100914.49;;;21.32;47.89
62055;BME280;48653;51.742;-1.256;2023-09-08T03:44:50;100912.52;;;21.05;48.30
62055;BME280;48653;51.742;-1.256;2023-09-08T03:47:16;100914.20;;;21.02;48.41
62055;BME280;48653;51.742;-1.256;2023-09-08T03:49:42;100916.28;;;21.14;48.43
62055;BME280;48653;51.742;-1.256;2023-09-08T03:52:07;100915.11;;;20.99;48.19
62055;BME280;48653;51.742;-1.256;2023-09-08T03:54:33;100916.21;;;21.36;49.12
62055;BME280;48653;51.742;-1.256;2023-09-08T03:56:59;100916.81;;;21.03;48.64
62055;BME280;48653;51.742;-1.256;2023-09-08T03:59:24;100920.45;;;21.19;48.71
62055;BME280;48653;51.742;-1.256;2023-09-08T04:01:50;100921.66;;;20.96;48.20
62055;BME280;48653;51.742;-1.256;2023-09-08T04:04:14;100922.51;;;20.81;48.24
62055;BME280;48653;51.742;-1.256;2023-09-08T04:06:39;100920.97;;;21.00;48.57
62055;BME280;48653;51.742;-1.256;2023-09-08T04:09:04;100924.10;;;20.96;49.07
62055;BME280;48653;51.742;-1.256;2023-09-08T04:11:30;100924.20;;;20.66;50.73
62055;BME280;48653;51.742;-1.256;2023-09-08T04:13:56;100923.26;;;21.10;49.79
62055;BME280;48653;51.742;-1.256;2023-09-08T04:16:21;100927.36;;;20.94;48.90
62055;BME280;48653;51.742;-1.256;2023-09-08T04:18:46;100925.08;;;20.68;48.90
62055;BME280;48653;51.742;-1.256;2023-09-08T04:21:12;100924.90;;;20.89;49.18
62055;BME280;48653;51.742;-1.256;2023-09-08T04:23:37;100929.49;;;20.78;49.19
62055;BME280;48653;51.742;-1.256;2023-09-08T04:26:02;100934.22;;;20.94;48.94
62055;BME280;48653;51.742;-1.256;2023-09-08T04:28:28;100939.48;;;20.72;49.15
62055;BME280;48653;51.742;-1.256;2023-09-08T04:30:54;100936.09;;;21.18;48.87
62055;BME280;48653;51.742;-1.256;2023-09-08T04:33:20;100937.12;;;20.68;48.88
62055;BME280;48653;51.742;-1.256;2023-09-08T04:35:45;100937.83;;;20.73;49.82
62055;BME280;48653;51.742;-1.256;2023-09-08T04:38:10;100942.53;;;20.52;50.45
62055;BME280;48653;51.742;-1.256;2023-09-08T04:40:36;100948.33;;;20.69;48.73
62055;BME280;48653;51.742;-1.256;2023-09-08T04:43:01;100947.92;;;20.85;49.88
62055;BME280;48653;51.742;-1.256;2023-09-08T04:45:27;100950.17;;;20.86;48.75
62055;BME280;48653;51.742;-1.256;2023-09-08T04:47:53;100948.50;;;20.97;47.81
62055;BME280;48653;51.742;-1.256;2023-09-08T04:50:17;100943.72;;;20.81;48.25
62055;BME280;48653;51.742;-1.256;2023-09-08T04:52:44;100939.67;;;20.98;48.94
62055;BME280;48653;51.742;-1.256;2023-09-08T04:55:10;100944.53;;;20.99;47.76
62055;BME280;48653;51.742;-1.256;2023-09-08T04:57:34;100947.15;;;20.95;49.18
62055;BME280;48653;51.742;-1.256;2023-09-08T04:59:59;100949.44;;;20.72;49.48
62055;BME280;48653;51.742;-1.256;2023-09-08T05:02:24;100947.30;;;20.92;49.13
62055;BME280;48653;51.742;-1.256;2023-09-08T05:04:50;100947.25;;;20.88;48.95
62055;BME280;48653;51.742;-1.256;2023-09-08T05:07:15;100948.23;;;20.79;50.14
62055;BME280;48653;51.742;-1.256;2023-09-08T05:09:40;100948.42;;;20.71;50.57
62055;BME280;48653;51.742;-1.256;2023-09-08T05:12:07;100945.77;;;20.89;49.98
62055;BME280;48653;51.742;-1.256;2023-09-08T05:14:32;100941.04;;;20.71;50.53
62055;BME280;48653;51.742;-1.256;2023-09-08T05:16:57;100938.41;;;20.59;49.71
62055;BME280;48653;51.742;-1.256;2023-09-08T05:19:22;100936.81;;;20.63;50.42
62055;BME280;48653;51.742;-1.256;2023-09-08T05:21:49;100937.75;;;20.31;50.34
62055;BME280;48653;51.742;-1.256;2023-09-08T05:24:13;100943.54;;;20.47;49.47
62055;BME280;48653;51.742;-1.256;2023-09-08T05:26:38;100949.59;;;20.29;50.31
62055;BME280;48653;51.742;-1.256;2023-09-08T05:29:05;100958.03;;;20.10;49.18
62055;BME280;48653;51.742;-1.256;2023-09-08T05:31:30;100963.02;;;20.36;48.56
62055;BME280;48653;51.742;-1.256;2023-09-08T05:33:54;100964.93;;;20.48;48.62
62055;BME280;48653;51.742;-1.256;2023-09-08T05:36:21;100961.38;;;20.65;48.19
62055;BME280;48653;51.742;-1.256;2023-09-08T05:38:45;100956.32;;;20.56;47.86
62055;BME280;48653;51.742;-1.256;2023-09-08T05:41:11;100956.28;;;20.69;49.35
62055;BME280;48653;51.742;-1.256;2023-09-08T05:43:36;100956.69;;;20.72;49.00
62055;BME280;48653;51.742;-1.256;2023-09-08T05:46:02;100957.26;;;20.74;49.30
62055;BME280;48653;51.742;-1.256;2023-09-08T05:48:27;100958.20;;;20.69;49.40
62055;BME280;48653;51.742;-1.256;2023-09-08T05:50:53;100960.20;;;20.67;47.82
62055;BME280;48653;51.742;-1.256;2023-09-08T05:53:18;100966.30;;;20.75;47.66
62055;BME280;48653;51.742;-1.256;2023-09-08T05:55:43;100971.32;;;20.74;47.84
62055;BME280;48653;51.742;-1.256;2023-09-08T05:58:09;100973.94;;;20.16;47.87
62055;BME280;48653;51.742;-1.256;2023-09-08T06:00:35;100971.63;;;20.80;48.50
62055;BME280;48653;51.742;-1.256;2023-09-08T06:03:00;100968.07;;;20.48;49.49
62055;BME280;48653;51.742;-1.256;2023-09-08T06:05:26;100968.60;;;20.56;49.09
62055;BME280;48653;51.742;-1.256;2023-09-08T06:07:51;100972.20;;;20.82;49.10
62055;BME280;48653;51.742;-1.256;2023-09-08T06:10:18;100977.63;;;20.62;50.11
62055;BME280;48653;51.742;-1.256;2023-09-08T06:12:43;100979.49;;;20.73;49.05
62055;BME280;48653;51.742;-1.256;2023-09-08T06:15:08;100987.03;;;21.07;48.78
62055;BME280;48653;51.742;-1.256;2023-09-08T06:17:34;100989.33;;;20.93;49.88
62055;BME280;48653;51.742;-1.256;2023-09-08T06:19:59;100988.55;;;20.91;48.73
62055;BME280;48653;51.742;-1.256;2023-09-08T06:22:25;100991.57;;;20.87;48.82
62055;BME280;48653;51.742;-1.256;2023-09-08T06:24:50;100995.78;;;20.90;48.51
62055;BME280;48653;51.742;-1.256;2023-09-08T06:27:17;100997.82;;;21.08;49.81
62055;BME280;48653;51.742;-1.256;2023-09-08T06:29:45;101000.51;;;21.02;50.32
62055;BME280;48653;51.742;-1.256;2023-09-08T06:32:06;101002.22;;;20.95;48.88
62055;BME280;48653;51.742;-1.256;2023-09-08T06:34:32;101009.72;;;20.99;49.03
62055;BME280;48653;51.742;-1.256;2023-09-08T06:36:59;101010.53;;;21.21;48.34
62055;BME280;48653;51.742;-1.256;2023-09-08T06:39:24;101012.07;;;21.40;49.65
62055;BME280;48653;51.742;-1.256;2023-09-08T06:41:47;101010.76;;;21.17;50.07
62055;BME280;48653;51.742;-1.256;2023-09-08T06:44:13;101011.00;;;21.21;50.85
62055;BME280;48653;51.742;-1.256;2023-09-08T06:46:38;101009.93;;;21.53;50.86
62055;BME280;48653;51.742;-1.256;2023-09-08T06:49:03;101008.22;;;21.38;50.68
62055;BME280;48653;51.742;-1.256;2023-09-08T06:51:30;101004.62;;;21.68;50.09
62055;BME280;48653;51.742;-1.256;2023-09-08T06:53:57;101000.84;;;21.50;50.48
62055;BME280;48653;51.742;-1.256;2023-09-08T06:56:19;100999.14;;;21.92;49.01
62055;BME280;48653;51.742;-1.256;2023-09-08T06:58:44;100998.05;;;21.89;50.15
62055;BME280;48653;51.742;-1.256;2023-09-08T07:01:10;100997.67;;;21.81;50.59
62055;BME280;48653;51.742;-1.256;2023-09-08T07:03:35;100999.22;;;21.87;50.85
62055;BME280;48653;51.742;-1.256;2023-09-08T07:06:01;101002.61;;;21.76;51.52
62055;BME280;48653;51.742;-1.256;2023-09-08T07:08:26;101004.40;;;21.93;50.61
62055;BME280;48653;51.742;-1.256;2023-09-08T07:10:53;101005.15;;;21.78;51.26
62055;BME280;48653;51.742;-1.256;2023-09-08T07:13:17;101006.47;;;21.90;51.29
62055;BME280;48653;51.742;-1.256;2023-09-08T07:15:42;101009.42;;;21.93;52.00
62055;BME280;48653;51.742;-1.256;2023-09-08T07:18:07;101012.65;;;21.98;51.84
62055;BME280;48653;51.742;-1.256;2023-09-08T07:20:32;101015.31;;;22.23;51.36
62055;BME280;48653;51.742;-1.256;2023-09-08T07:22:58;101016.63;;;22.19;50.26
62055;BME280;48653;51.742;-1.256;2023-09-08T07:25:23;101016.04;;;22.37;49.86
62055;BME280;48653;51.742;-1.256;2023-09-08T07:27:50;101018.11;;;22.39;49.67
62055;BME280;48653;51.742;-1.256;2023-09-08T07:30:14;101022.46;;;22.70;49.57
62055;BME280;48653;51.742;-1.256;2023-09-08T07:32:39;101023.28;;;22.53;49.26
62055;BME280;48653;51.742;-1.256;2023-09-08T07:35:06;101021.69;;;23.62;46.22
62055;BME280;48653;51.742;-1.256;2023-09-08T07:37:30;101020.11;;;22.83;47.91
62055;BME280;48653;51.742;-1.256;2023-09-08T07:39:56;101016.93;;;23.08;47.95
62055;BME280;48653;51.742;-1.256;2023-09-08T07:42:22;101014.90;;;23.20;47.59
62055;BME280;48653;51.742;-1.256;2023-09-08T07:44:48;101019.85;;;23.29;47.60
62055;BME280;48653;51.742;-1.256;2023-09-08T07:47:13;101017.98;;;23.45;47.52
62055;BME280;48653;51.742;-1.256;2023-09-08T07:49:38;101016.90;;;23.89;46.75
62055;BME280;48653;51.742;-1.256;2023-09-08T07:52:04;101015.87;;;23.99;45.77
62055;BME280;48653;51.742;-1.256;2023-09-08T07:54:28;101013.47;;;24.05;46.03
62055;BME280;48653;51.742;-1.256;2023-09-08T07:56:54;101010.55;;;24.10;47.11
62055;BME280;48653;51.742;-1.256;2023-09-08T07:59:19;101009.96;;;23.90;47.11
62055;BME280;48653;51.742;-1.256;2023-09-08T08:01:44;101011.14;;;23.90;47.52
62055;BME280;48653;51.742;-1.256;2023-09-08T08:04:10;101014.40;;;23.93;46.98
62055;BME280;48653;51.742;-1.256;2023-09-08T08:06:36;101013.59;;;24.14;46.96
62055;BME280;48653;51.742;-1.256;2023-09-08T08:09:01;101012.96;;;24.29;47.05
62055;BME280;48653;51.742;-1.256;2023-09-08T08:11:26;101012.52;;;24.14;47.78
62055;BME280;48653;51.742;-1.256;2023-09-08T08:13:54;101011.60;;;24.72;46.01
62055;BME280;48653;51.742;-1.256;2023-09-08T08:16:17;101009.71;;;24.13;46.66
62055;BME280;48653;51.742;-1.256;2023-09-08T08:18:42;101008.04;;;24.97;45.85
62055;BME280;48653;51.742;-1.256;2023-09-08T08:21:08;101005.95;;;24.55;46.59
62055;BME280;48653;51.742;-1.256;2023-09-08T08:23:33;101008.14;;;24.38;47.81
62055;BME280;48653;51.742;-1.256;2023-09-08T08:25:58;101010.69;;;24.51;47.58
62055;BME280;48653;51.742;-1.256;2023-09-08T08:28:23;101017.75;;;24.91;46.29
62055;BME280;48653;51.742;-1.256;2023-09-08T08:30:49;101022.03;;;24.70;47.12
62055;BME280;48653;51.742;-1.256;2023-09-08T08:33:15;101023.24;;;24.48;46.56
62055;BME280;48653;51.742;-1.256;2023-09-08T08:38:05;101031.30;;;25.51;45.05
62055;BME280;48653;51.742;-1.256;2023-09-08T08:40:31;101035.86;;;25.39;44.55
62055;BME280;48653;51.742;-1.256;2023-09-08T08:42:57;101040.90;;;25.42;43.56
62055;BME280;48653;51.742;-1.256;2023-09-08T08:45:23;101043.24;;;25.50;43.45
62055;BME280;48653;51.742;-1.256;2023-09-08T08:47:46;101046.72;;;25.67;41.96
62055;BME280;48653;51.742;-1.256;2023-09-08T08:50:12;101044.62;;;25.64;41.30
62055;BME280;48653;51.742;-1.256;2023-09-08T08:52:38;101046.90;;;25.56;42.12
62055;BME280;48653;51.742;-1.256;2023-09-08T08:55:02;101045.02;;;25.06;42.55
62055;BME280;48653;51.742;-1.256;2023-09-08T08:57:28;101044.80;;;24.36;43.48
62055;BME280;48653;51.742;-1.256;2023-09-08T08:59:53;101040.40;;;24.86;43.36
62055;BME280;48653;51.742;-1.256;2023-09-08T09:02:19;101039.35;;;25.35;43.18
62055;BME280;48653;51.742;-1.256;2023-09-08T09:04:45;101032.85;;;25.77;42.76
62055;BME280;48653;51.742;-1.256;2023-09-08T09:07:10;101034.10;;;26.03;43.43
62055;BME280;48653;51.742;-1.256;2023-09-08T09:09:35;101037.86;;;26.23;42.78
62055;BME280;48653;51.742;-1.256;2023-09-08T09:12:00;101036.81;;;26.58;40.54
62055;BME280;48653;51.742;-1.256;2023-09-08T09:14:26;101037.27;;;26.99;39.86
62055;BME280;48653;51.742;-1.256;2023-09-08T09:16:56;101038.96;;;26.33;42.59
62055;BME280;48653;51.742;-1.256;2023-09-08T09:19:19;101039.87;;;26.41;40.72
62055;BME280;48653;51.742;-1.256;2023-09-08T09:21:44;101044.39;;;26.93;40.38
62055;BME280;48653;51.742;-1.256;2023-09-08T09:24:13;101047.50;;;26.78;40.41
62055;BME280;48653;51.742;-1.256;2023-09-08T09:26:33;101050.96;;;26.55;41.51
62055;BME280;48653;51.742;-1.256;2023-09-08T09:28:58;101051.52;;;26.11;40.93
62055;BME280;48653;51.742;-1.256;2023-09-08T09:31:24;101046.52;;;26.98;40.28
62055;BME280;48653;51.742;-1.256;2023-09-08T09:34:02;101046.75;;;26.76;41.53
62055;BME280;48653;51.742;-1.256;2023-09-08T09:36:20;101041.40;;;28.65;37.49
62055;BME280;48653;51.742;-1.256;2023-09-08T09:38:40;101047.71;;;27.82;38.49
62055;BME280;48653;51.742;-1.256;2023-09-08T09:41:05;101050.15;;;27.27;39.47
62055;BME280;48653;51.742;-1.256;2023-09-08T09:43:30;101048.92;;;27.89;40.61
62055;BME280;48653;51.742;-1.256;2023-09-08T09:45:57;101046.23;;;27.13;40.23
62055;BME280;48653;51.742;-1.256;2023-09-08T09:48:22;101042.04;;;28.32;40.11
62055;BME280;48653;51.742;-1.256;2023-09-08T09:50:47;101041.07;;;28.20;38.88
62055;BME280;48653;51.742;-1.256;2023-09-08T09:53:15;101044.97;;;28.04;39.56
62055;BME280;48653;51.742;-1.256;2023-09-08T09:58:04;101046.79;;;29.25;38.27
62055;BME280;48653;51.742;-1.256;2023-09-08T10:00:29;101046.92;;;29.66;37.78
62055;BME280;48653;51.742;-1.256;2023-09-08T10:02:54;101049.51;;;30.39;37.92
62055;BME280;48653;51.742;-1.256;2023-09-08T10:05:19;101042.83;;;29.12;36.27
62055;BME280;48653;51.742;-1.256;2023-09-08T10:07:46;101046.23;;;29.99;36.51
62055;BME280;48653;51.742;-1.256;2023-09-08T10:10:10;101048.22;;;30.36;37.02
62055;BME280;48653;51.742;-1.256;2023-09-08T10:12:37;101048.61;;;30.70;36.11
62055;BME280;48653;51.742;-1.256;2023-09-08T10:15:02;101050.44;;;30.87;36.55
62055;BME280;48653;51.742;-1.256;2023-09-08T10:17:30;101047.91;;;31.14;34.88
62055;BME280;48653;51.742;-1.256;2023-09-08T10:19:52;101046.31;;;31.60;35.93
62055;BME280;48653;51.742;-1.256;2023-09-08T10:22:20;101046.58;;;32.06;34.33
62055;BME280;48653;51.742;-1.256;2023-09-08T10:24:43;101045.03;;;33.08;32.14
62055;BME280;48653;51.742;-1.256;2023-09-08T10:27:09;101045.69;;;32.80;32.18
62055;BME280;48653;51.742;-1.256;2023-09-08T10:29:34;101047.42;;;32.87;33.01
62055;BME280;48653;51.742;-1.256;2023-09-08T10:31:59;101051.23;;;32.50;31.80
62055;BME280;48653;51.742;-1.256;2023-09-08T10:34:25;101049.28;;;33.06;32.06
62055;BME280;48653;51.742;-1.256;2023-09-08T10:36:50;101049.30;;;33.09;32.75
62055;BME280;48653;51.742;-1.256;2023-09-08T10:39:29;101043.40;;;33.83;31.87
62055;BME280;48653;51.742;-1.256;2023-09-08T10:41:40;101042.39;;;33.90;30.74
62055;BME280;48653;51.742;-1.256;2023-09-08T10:44:07;101044.99;;;33.64;31.53
62055;BME280;48653;51.742;-1.256;2023-09-08T10:46:32;101043.60;;;33.65;30.61
62055;BME280;48653;51.742;-1.256;2023-09-08T10:49:02;101043.55;;;33.66;31.12
62055;BME280;48653;51.742;-1.256;2023-09-08T10:51:22;101043.92;;;34.08;30.82
62055;BME280;48653;51.742;-1.256;2023-09-08T10:53:47;101044.88;;;34.41;30.82
62055;BME280;48653;51.742;-1.256;2023-09-08T10:56:13;101036.79;;;33.97;30.08
62055;BME280;48653;51.742;-1.256;2023-09-08T10:58:40;101035.47;;;34.74;29.89
62055;BME280;48653;51.742;-1.256;2023-09-08T11:01:04;101038.58;;;34.91;31.86
62055;BME280;48653;51.742;-1.256;2023-09-08T11:03:43;101033.40;;;34.89;30.11
62055;BME280;48653;51.742;-1.256;2023-09-08T11:05:58;101038.58;;;34.96;29.35
62055;BME280;48653;51.742;-1.256;2023-09-08T11:08:21;101036.84;;;34.74;29.25
62055;BME280;48653;51.742;-1.256;2023-09-08T11:10:47;101035.03;;;35.02;28.88
62055;BME280;48653;51.742;-1.256;2023-09-08T11:13:12;101034.91;;;35.25;30.72
62055;BME280;48653;51.742;-1.256;2023-09-08T11:15:37;101031.78;;;35.69;29.08
62055;BME280;48653;51.742;-1.256;2023-09-08T11:18:06;101033.41;;;34.73;29.87
62055;BME280;48653;51.742;-1.256;2023-09-08T11:20:28;101034.46;;;34.79;29.37
62055;BME280;48653;51.742;-1.256;2023-09-08T11:22:54;101035.33;;;35.48;29.67
62055;BME280;48653;51.742;-1.256;2023-09-08T11:25:20;101037.88;;;34.15;30.55
62055;BME280;48653;51.742;-1.256;2023-09-08T11:27:44;101032.84;;;34.49;29.49
62055;BME280;48653;51.742;-1.256;2023-09-08T11:30:10;101031.10;;;34.61;30.19
62055;BME280;48653;51.742;-1.256;2023-09-08T11:32:36;101028.87;;;35.04;28.90
62055;BME280;48653;51.742;-1.256;2023-09-08T11:35:03;101030.96;;;34.91;31.98
62055;BME280;48653;51.742;-1.256;2023-09-08T11:37:26;101030.59;;;34.90;29.85
62055;BME280;48653;51.742;-1.256;2023-09-08T11:39:51;101029.39;;;35.32;30.42
62055;BME280;48653;51.742;-1.256;2023-09-08T11:42:17;101024.33;;;34.77;29.57
62055;BME280;48653;51.742;-1.256;2023-09-08T11:44:42;101024.30;;;34.58;28.86
62055;BME280;48653;51.742;-1.256;2023-09-08T11:47:08;101019.55;;;34.76;29.95
62055;BME280;48653;51.742;-1.256;2023-09-08T11:49:34;101020.32;;;34.54;30.90
62055;BME280;48653;51.742;-1.256;2023-09-08T11:51:58;101021.21;;;34.28;29.52
62055;BME280;48653;51.742;-1.256;2023-09-08T11:54:24;101019.79;;;34.30;28.79
62055;BME280;48653;51.742;-1.256;2023-09-08T11:56:50;101021.99;;;34.29;29.39
62055;BME280;48653;51.742;-1.256;2023-09-08T11:59:15;101023.68;;;34.65;28.86
62055;BME280;48653;51.742;-1.256;2023-09-08T12:01:40;101023.03;;;34.45;27.31
62055;BME280;48653;51.742;-1.256;2023-09-08T12:04:06;101017.28;;;33.89;30.15
62055;BME280;48653;51.742;-1.256;2023-09-08T12:06:31;101017.10;;;34.84;27.48
62055;BME280;48653;51.742;-1.256;2023-09-08T12:09:00;101012.42;;;35.22;28.48
62055;BME280;48653;51.742;-1.256;2023-09-08T12:11:22;101009.40;;;35.48;28.36
62055;BME280;48653;51.742;-1.256;2023-09-08T12:13:47;101008.12;;;35.68;27.29
62055;BME280;48653;51.742;-1.256;2023-09-08T12:16:18;101009.03;;;34.73;28.67
62055;BME280;48653;51.742;-1.256;2023-09-08T12:18:38;101007.43;;;34.54;28.87
62055;BME280;48653;51.742;-1.256;2023-09-08T12:21:04;101005.69;;;34.71;29.61
62055;BME280;48653;51.742;-1.256;2023-09-08T12:23:27;101005.49;;;34.74;29.01
62055;BME280;48653;51.742;-1.256;2023-09-08T12:25:53;101008.33;;;34.71;29.35
62055;BME280;48653;51.742;-1.256;2023-09-08T12:30:43;101004.53;;;35.13;29.12
62055;BME280;48653;51.742;-1.256;2023-09-08T12:33:08;101005.30;;;34.78;27.56
62055;BME280;48653;51.742;-1.256;2023-09-08T12:35:34;101005.42;;;35.06;29.59
62055;BME280;48653;51.742;-1.256;2023-09-08T12:37:59;101006.26;;;35.04;28.78
62055;BME280;48653;51.742;-1.256;2023-09-08T12:40:24;101001.03;;;34.75;27.90